Hlavní strana
METAR-TAF:

METAR-TAF

Letiště :

Abakan, Rusko

zeměpisná šířka: 53-45N, zeměpisná délka: 091-24E, výška: 245 m

Aktuální stav počasí

Zpráva byla vytvořena před 34 minutami, v 12:00 UTC
Západojihozápadní vítr 4 kt
Teplota 11°C
Vlhkost vzduchu 16%
Tlak 1017 hPa
Viditelnost 10 km a více
Žádná oblačnost pod 1500 m, nevyskytují se cumulonimby.

METAR: UNAA 231200Z 24002MPS CAVOK 11/M14 Q1017 R02/190060 NOSIG RMK QFE740

Čas: 19:34 (12:34 UTC)

Předpověď počasí

Zpráva byla vytvořena před 1 hodinou a 42 minutami, v 10:52 UTC
Předpověď platná od 23 v 12 UTC do 24 v 12 UTC
Východojihovýchodní vítr 6 kt s nárazy do 19 kt
Viditelnost 10 km a více
Žádná oblačnost pod 1500 m, nevyskytují se cumulonimby.
Od 24 v 0600 UTC
Západní vítr 6 kt s nárazy do 19 kt
Viditelnost 10 km a více
Polojasno ve výšce 4000 ft

TAF: UNAA 231052Z 2312/2412 11003G10MPS CAVOK FM240600 27003G10MPS 9999 SCT040

Stav a předpovědi počasí z více než 4 000 letišť (zprávy METAR a TAF).

Červené a žluté tečky na mapě představují dostupné meteorologické stanice.

Když kurzor umístíte na tečku, zobrazí se název stanice.

Pak kliknutím zobrazíte stav a předpověď počasí.

Chcete-li změnit mapu, kliknutím na zelené tlačítko se znaménkem +mapu přiblížíte, kliknutím na zelené tlačítko se znaménkem – mapu oddálíte a kliknutím na zelené šipky přejdete na sousední mapy.


METAR-TAF: